Time;durP1;ratioP1;P1;durP2;ratioP2;P2;SDS_P1;SDS_P2;PMS_P1;PMS_P2;Temp;Humidity;BMP_temperature;BMP_pressure;BME280_temperature;BME280_humidity;BME280_pressure;Samples;Min_cycle;Max_cycle;Signal;HPM_P1;HPM_P2
2022/01/17 00:00:12;;;;;;;16.90;8.35;;;-1.90;92.30;;;;;;6246969;23;19996;-77
2022/01/17 00:02:39;;;;;;;17.88;7.43;;;-1.90;92.50;;;;;;6219878;23;19997;-78
2022/01/17 00:05:07;;;;;;;20.60;7.60;;;-1.90;92.70;;;;;;6246919;23;20004;-78
2022/01/17 00:07:33;;;;;;;17.00;7.93;;;-1.90;93.00;;;;;;6219850;23;20000;-77
2022/01/17 00:09:59;;;;;;;12.82;6.75;;;-1.90;93.20;;;;;;6220078;23;20027;-78
2022/01/17 00:12:26;;;;;;;16.00;7.07;;;-1.90;92.80;;;;;;6220009;23;20055;-78
2022/01/17 00:14:55;;;;;;;14.80;7.25;;;-2.00;93.50;;;;;;6219944;23;20031;-78
2022/01/17 00:19:48;;;;;;;13.65;6.68;;;-2.00;93.90;;;;;;6247335;23;20388;-78
2022/01/17 00:22:15;;;;;;;12.40;6.20;;;-2.00;93.70;;;;;;6219893;23;20058;-78
2022/01/17 00:24:41;;;;;;;13.60;6.63;;;-2.00;93.90;;;;;;6246747;23;19999;-78
2022/01/17 00:27:08;;;;;;;13.88;6.63;;;-2.10;94.20;;;;;;6219912;23;20004;-78
2022/01/17 00:29:34;;;;;;;15.88;6.60;;;-2.10;94.50;;;;;;6246349;23;20046;-78
2022/01/17 00:32:01;;;;;;;14.43;6.65;;;-2.10;94.70;;;;;;6247803;23;19996;-78
2022/01/17 00:34:27;;;;;;;16.10;6.93;;;-2.10;95.00;;;;;;6246935;23;20027;-78
2022/01/17 00:36:53;;;;;;;15.60;7.28;;;-2.10;95.30;;;;;;6219545;23;20008;-80
2022/01/17 00:39:19;;;;;;;14.23;7.07;;;-2.10;95.30;;;;;;6219761;23;20006;-78
2022/01/17 00:41:45;;;;;;;15.00;7.00;;;-2.10;95.20;;;;;;6219570;23;20011;-77
2022/01/17 00:44:15;;;;;;;17.38;6.63;;;-2.20;95.50;;;;;;6239783;23;20359;-81
2022/01/17 00:46:41;;;;;;;14.32;7.55;;;-2.20;95.50;;;;;;6239254;23;20478;-79
2022/01/17 00:49:07;;;;;;;14.38;6.68;;;-2.20;95.60;;;;;;6219007;23;20000;-77
2022/01/17 00:51:33;;;;;;;13.27;6.85;;;-2.20;96.10;;;;;;6246189;23;20004;-78
2022/01/17 00:54:00;;;;;;;13.55;6.50;;;-2.20;96.00;;;;;;6246579;23;20307;-78
2022/01/17 00:56:25;;;;;;;13.25;6.78;;;-2.20;96.00;;;;;;6246732;23;20415;-78
2022/01/17 00:58:51;;;;;;;12.43;6.40;;;-2.20;96.20;;;;;;6219429;23;20030;-79
2022/01/17 01:01:17;;;;;;;11.27;5.60;;;-2.30;96.00;;;;;;6246399;23;20066;-78
2022/01/17 01:03:43;;;;;;;13.80;6.45;;;-2.30;96.00;;;;;;6219719;23;20363;-77
2022/01/17 01:06:09;;;;;;;16.33;6.40;;;-2.30;96.20;;;;;;6219393;23;20014;-78
2022/01/17 01:08:35;;;;;;;14.65;6.60;;;-2.30;96.30;;;;;;6218219;23;20028;-77
2022/01/17 01:11:01;;;;;;;15.68;7.18;;;-2.30;96.50;;;;;;6246516;23;19996;-78
2022/01/17 01:13:29;;;;;;;14.73;6.68;;;-2.30;96.60;;;;;;6219876;23;20694;-80
2022/01/17 01:28:54;;;;;;;15.48;7.47;;;-2.30;96.90;;;;;;6246229;23;20062;-78
2022/01/17 01:31:29;;;;;;;15.85;7.45;;;-2.30;96.70;;;;;;6246306;23;20016;-78
2022/01/17 01:34:02;;;;;;;14.43;7.32;;;-2.40;96.40;;;;;;6246822;23;19996;-79
2022/01/17 01:36:29;;;;;;;13.13;7.10;;;-2.40;96.70;;;;;;6219614;23;20091;-78
2022/01/17 01:38:54;;;;;;;12.98;6.55;;;-2.40;97.10;;;;;;6219545;23;20004;-77
2022/01/17 01:41:20;;;;;;;13.52;7.15;;;-2.50;97.10;;;;;;6246495;23;19992;-77
2022/01/17 01:43:47;;;;;;;14.85;7.28;;;-2.50;97.20;;;;;;6246557;23;20011;-78
2022/01/17 01:46:17;;;;;;;16.05;7.00;;;-2.50;97.40;;;;;;6246300;23;20004;-78
2022/01/17 01:48:43;;;;;;;14.95;6.97;;;-2.60;97.20;;;;;;6219679;23;20075;-77
2022/01/17 01:51:09;;;;;;;13.38;6.35;;;-2.60;97.20;;;;;;6246112;23;20027;-77
2022/01/17 01:53:36;;;;;;;14.65;6.38;;;-2.60;97.50;;;;;;6246441;23;20035;-77
2022/01/17 01:56:02;;;;;;;13.20;6.72;;;-2.60;97.80;;;;;;6218634;23;20050;-78
2022/01/17 01:58:27;;;;;;;13.30;6.47;;;-2.70;97.70;;;;;;6245478;23;20001;-78
2022/01/17 02:00:55;;;;;;;13.95;6.55;;;-2.60;97.60;;;;;;6218941;23;20078;-78
2022/01/17 02:03:21;;;;;;;17.40;6.97;;;-2.70;97.40;;;;;;6219019;23;20004;-79
2022/01/17 02:05:46;;;;;;;15.32;7.00;;;-2.70;97.60;;;;;;6219197;23;20012;-78
2022/01/17 02:08:13;;;;;;;15.68;7.10;;;-2.70;97.80;;;;;;6219179;23;20075;-79
2022/01/17 02:10:39;;;;;;;13.95;6.97;;;-2.70;97.90;;;;;;6219291;23;20051;-78
2022/01/17 02:13:05;;;;;;;15.93;7.82;;;-2.70;97.80;;;;;;6220422;23;20075;-77
2022/01/17 02:15:31;;;;;;;14.98;7.97;;;-2.70;98.30;;;;;;6247245;23;20035;-77
2022/01/17 02:17:58;;;;;;;14.95;7.65;;;-2.70;98.30;;;;;;6220555;23;20086;-77
2022/01/17 02:20:41;;;;;;;16.73;7.97;;;-2.70;97.90;;;;;;6220948;23;20000;-77
2022/01/17 02:23:08;;;;;;;13.18;6.32;;;-2.70;98.20;;;;;;6220857;23;20082;-77
2022/01/17 02:25:33;;;;;;;13.35;7.10;;;-2.70;98.00;;;;;;6220755;23;20004;-77
2022/01/17 02:28:00;;;;;;;14.13;7.18;;;-2.70;98.50;;;;;;6247166;23;20331;-77
2022/01/17 02:30:27;;;;;;;15.43;7.78;;;-2.70;98.30;;;;;;6220396;23;19996;-77
2022/01/17 02:32:53;;;;;;;17.20;7.25;;;-2.60;98.40;;;;;;6247593;23;20001;-77
2022/01/17 02:35:21;;;;;;;17.58;7.82;;;-2.70;98.00;;;;;;6220484;23;20019;-77
2022/01/17 02:37:48;;;;;;;18.30;7.88;;;-2.60;98.10;;;;;;6220399;23;20072;-77
2022/01/17 02:40:16;;;;;;;16.80;8.05;;;-2.70;98.30;;;;;;6247313;23;20000;-78
2022/01/17 02:42:43;;;;;;;22.20;8.77;;;-2.60;98.70;;;;;;6220435;23;20426;-77
2022/01/17 02:47:55;;;;;;;19.33;8.70;;;-2.60;98.40;;;;;;6247084;23;20012;-77
2022/01/17 02:50:21;;;;;;;20.48;7.95;;;-2.60;98.40;;;;;;6246956;23;19996;-77
2022/01/17 02:52:46;;;;;;;18.73;8.82;;;-2.60;98.20;;;;;;6220278;23;20083;-77
2022/01/17 02:55:12;;;;;;;17.92;9.48;;;-2.50;98.30;;;;;;6220219;23;20012;-77
2022/01/17 02:57:38;;;;;;;16.30;8.35;;;-2.50;98.20;;;;;;6247047;23;20016;-78
2022/01/17 03:00:05;;;;;;;19.00;8.70;;;-2.50;98.10;;;;;;6247357;23;20004;-77
2022/01/17 03:02:30;;;;;;;19.15;9.35;;;-2.50;98.20;;;;;;6247250;23;20000;-78
2022/01/17 03:04:56;;;;;;;17.48;8.80;;;-2.50;98.30;;;;;;6247338;23;20426;-77
2022/01/17 03:07:22;;;;;;;19.00;8.60;;;-2.50;98.00;;;;;;6247101;23;20004;-78
2022/01/17 03:10:01;;;;;;;18.00;8.70;;;-2.40;97.90;;;;;;6220318;23;20004;-78
2022/01/17 03:12:28;;;;;;;15.65;8.48;;;-2.40;97.60;;;;;;6247172;23;20000;-77
2022/01/17 03:14:53;;;;;;;17.40;8.35;;;-2.40;97.80;;;;;;6247255;23;20027;-78
2022/01/17 03:17:19;;;;;;;15.70;7.60;;;-2.40;97.60;;;;;;6246986;23;20407;-77
2022/01/17 03:19:44;;;;;;;18.38;8.95;;;-2.40;97.50;;;;;;6220077;23;20245;-78
2022/01/17 03:22:10;;;;;;;23.60;9.68;;;-2.40;97.30;;;;;;6246857;23;20371;-77
2022/01/17 03:24:36;;;;;;;18.05;9.25;;;-2.30;97.00;;;;;;6247251;23;20300;-78
2022/01/17 03:27:01;;;;;;;22.38;10.18;;;-2.30;96.70;;;;;;6247172;23;20469;-77
2022/01/17 03:29:27;;;;;;;19.90;9.40;;;-2.20;96.50;;;;;;6246760;23;20113;-78
2022/01/17 03:31:53;;;;;;;22.45;9.18;;;-2.20;96.20;;;;;;6246797;23;20004;-77
2022/01/17 03:34:18;;;;;;;19.10;9.80;;;-2.20;96.10;;;;;;6246975;23;20004;-78
2022/01/17 03:36:44;;;;;;;20.23;9.60;;;-2.20;95.70;;;;;;6220030;23;20015;-77
2022/01/17 03:39:11;;;;;;;20.08;9.30;;;-2.10;95.70;;;;;;6246544;23;20474;-77
2022/01/17 03:41:37;;;;;;;24.67;9.93;;;-2.10;95.80;;;;;;6220476;23;20326;-77
2022/01/17 03:44:03;;;;;;;21.23;9.98;;;-2.10;95.60;;;;;;6220262;23;20004;-77
2022/01/17 03:46:28;;;;;;;20.17;8.98;;;-2.10;95.50;;;;;;6219702;23;20000;-77
2022/01/17 03:48:54;;;;;;;17.27;9.25;;;-2.10;95.50;;;;;;6246854;23;20000;-78
2022/01/17 03:51:20;;;;;;;22.15;9.65;;;-2.00;95.40;;;;;;6220139;23;20011;-77
2022/01/17 03:53:45;;;;;;;15.20;8.55;;;-2.00;95.10;;;;;;6247021;23;20303;-77
2022/01/17 03:56:11;;;;;;;17.83;8.85;;;-2.00;95.10;;;;;;6246758;23;20012;-78
2022/01/17 03:58:37;;;;;;;21.40;10.05;;;-1.90;95.10;;;;;;6247131;23;20382;-77
2022/01/17 04:01:03;;;;;;;20.60;10.10;;;-1.90;94.70;;;;;;6220497;23;20004;-78
2022/01/17 04:03:29;;;;;;;20.63;10.27;;;-1.90;94.60;;;;;;6247067;23;20011;-78
2022/01/17 04:05:55;;;;;;;24.38;11.50;;;-1.80;94.40;;;;;;6219790;23;20054;-77
2022/01/17 04:08:21;;;;;;;26.48;11.02;;;-1.80;94.00;;;;;;6246783;23;20007;-77
2022/01/17 04:10:47;;;;;;;22.92;10.85;;;-1.80;94.10;;;;;;6220025;23;20052;-77
2022/01/17 04:13:13;;;;;;;23.75;11.10;;;-1.80;93.80;;;;;;6219692;23;20297;-77
2022/01/17 04:15:40;;;;;;;22.23;10.60;;;-1.70;93.80;;;;;;6219474;23;20005;-77
2022/01/17 04:18:08;;;;;;;22.50;10.02;;;-1.70;93.30;;;;;;6246509;23;20007;-77
2022/01/17 04:20:34;;;;;;;22.20;10.45;;;-1.60;93.10;;;;;;6219747;23;20030;-77
2022/01/17 04:23:03;;;;;;;22.98;10.15;;;-1.60;92.30;;;;;;6246110;23;20035;-77
2022/01/17 04:25:32;;;;;;;18.98;8.63;;;-1.50;92.30;;;;;;6219721;23;20412;-77
2022/01/17 04:28:00;;;;;;;22.48;9.65;;;-1.60;92.20;;;;;;6246291;23;20006;-77
2022/01/17 04:30:28;;;;;;;19.85;10.43;;;-1.50;91.90;;;;;;6219747;23;20007;-77
2022/01/17 04:32:54;;;;;;;21.50;10.60;;;-1.50;91.70;;;;;;6219419;23;20000;-77
2022/01/17 04:35:22;;;;;;;24.45;11.20;;;-1.50;91.40;;;;;;6219121;23;20000;-77
2022/01/17 04:38:02;;;;;;;22.95;10.40;;;-1.40;91.10;;;;;;6246205;23;20039;-77
2022/01/17 04:40:34;;;;;;;24.13;10.80;;;-1.40;90.80;;;;;;6246400;23;19992;-77
2022/01/17 04:43:02;;;;;;;19.88;9.50;;;-1.40;90.60;;;;;;6246344;23;20023;-77
2022/01/17 04:45:28;;;;;;;21.55;10.18;;;-1.40;90.70;;;;;;6219650;23;20004;-78
2022/01/17 04:47:54;;;;;;;25.10;10.68;;;-1.40;90.40;;;;;;6246001;23;20433;-77
2022/01/17 04:50:22;;;;;;;22.13;10.38;;;-1.30;90.10;;;;;;6246215;23;20295;-78
2022/01/17 04:52:49;;;;;;;25.27;11.80;;;-1.30;89.80;;;;;;6219559;23;20004;-77
2022/01/17 04:55:17;;;;;;;26.00;11.20;;;-1.40;89.80;;;;;;6219725;23;20330;-78
2022/01/17 04:57:43;;;;;;;26.58;11.40;;;-1.30;90.10;;;;;;6218274;23;20008;-78
2022/01/17 05:00:12;;;;;;;27.38;11.73;;;-1.30;89.00;;;;;;6245909;23;19998;-77
2022/01/17 05:02:38;;;;;;;21.88;10.70;;;-1.20;88.60;;;;;;6219396;23;19996;-77
2022/01/17 05:05:04;;;;;;;22.35;10.70;;;-1.30;88.80;;;;;;6246183;23;19996;-77
2022/01/17 05:07:32;;;;;;;19.55;10.07;;;-1.30;89.10;;;;;;6219176;23;20051;-77
2022/01/17 05:09:58;;;;;;;23.45;11.23;;;-1.20;88.80;;;;;;6245485;23;20027;-77
2022/01/17 05:12:25;;;;;;;24.42;12.63;;;-1.20;88.80;;;;;;6219049;23;20082;-78
2022/01/17 05:14:52;;;;;;;28.83;14.35;;;-1.20;88.60;;;;;;6219708;23;20094;-77
2022/01/17 05:19:48;;;;;;;25.92;12.65;;;-1.20;89.00;;;;;;6246002;23;20304;-78
2022/01/17 05:22:18;;;;;;;29.95;14.32;;;-1.20;88.70;;;;;;6218596;23;20427;-78
2022/01/17 05:24:44;;;;;;;30.20;14.43;;;-1.20;88.90;;;;;;6238394;23;20005;-78
2022/01/17 05:27:10;;;;;;;27.80;13.15;;;-1.20;89.20;;;;;;6245934;23;20011;-78
2022/01/17 05:29:35;;;;;;;27.70;13.60;;;-1.20;89.30;;;;;;6246055;23;20003;-80
2022/01/17 05:32:01;;;;;;;33.38;14.77;;;-1.30;89.50;;;;;;6246136;23;20001;-77
2022/01/17 05:34:28;;;;;;;31.95;14.13;;;-1.30;89.20;;;;;;6245939;23;20001;-78
2022/01/17 05:36:56;;;;;;;23.73;11.65;;;-1.20;88.90;;;;;;6218492;23;20372;-77
2022/01/17 05:39:22;;;;;;;26.00;12.73;;;-1.20;88.70;;;;;;6218237;23;20004;-78
2022/01/17 05:41:47;;;;;;;24.83;11.77;;;-1.00;88.20;;;;;;6217952;23;20004;-79
2022/01/17 05:44:13;;;;;;;25.00;10.68;;;-1.20;88.10;;;;;;6245866;23;20012;-78
2022/01/17 05:46:39;;;;;;;21.05;10.35;;;-1.10;87.70;;;;;;6247470;23;19996;-77
2022/01/17 05:49:05;;;;;;;20.55;10.25;;;-1.10;87.20;;;;;;6247870;23;20078;-76
2022/01/17 05:51:30;;;;;;;24.23;11.23;;;-1.10;87.20;;;;;;6247678;23;20337;-77
2022/01/17 05:53:56;;;;;;;27.35;11.57;;;-1.10;87.30;;;;;;6220618;23;20011;-78
2022/01/17 05:56:21;;;;;;;29.10;11.98;;;-1.10;87.00;;;;;;6247026;23;20016;-79
2022/01/17 05:58:47;;;;;;;19.33;10.27;;;-1.00;85.80;;;;;;6220760;23;20326;-78
2022/01/17 06:01:14;;;;;;;25.52;11.02;;;-1.00;84.70;;;;;;6220113;23;20000;-78
2022/01/17 06:03:39;;;;;;;24.25;10.40;;;-1.00;84.10;;;;;;6220923;23;20323;-77
2022/01/17 06:06:06;;;;;;;19.85;9.70;;;-1.00;84.20;;;;;;6220624;23;20004;-82
2022/01/17 06:08:32;;;;;;;44.88;21.38;;;-0.90;83.60;;;;;;6220770;23;20001;-82
2022/01/17 06:10:58;;;;;;;39.88;15.93;;;-0.80;83.10;;;;;;6220621;23;20007;-77
2022/01/17 06:13:24;;;;;;;27.88;12.55;;;-0.80;82.50;;;;;;6220478;23;20380;-78
2022/01/17 06:15:50;;;;;;;23.02;11.52;;;-0.70;81.90;;;;;;6220961;23;20108;-78
2022/01/17 06:18:16;;;;;;;24.67;10.45;;;-0.60;80.90;;;;;;6219903;23;20367;-77
2022/01/17 06:20:41;;;;;;;20.17;8.75;;;-0.60;79.90;;;;;;6246935;23;20020;-78
2022/01/17 06:23:07;;;;;;;19.88;9.13;;;-0.60;79.60;;;;;;6220703;23;20007;-86
2022/01/17 06:25:33;;;;;;;20.00;9.55;;;-0.60;79.90;;;;;;6220179;23;20091;-77
2022/01/17 06:27:59;;;;;;;17.73;8.63;;;-0.50;80.30;;;;;;6247249;23;20075;-78
2022/01/17 06:30:25;;;;;;;16.73;8.65;;;-0.50;80.20;;;;;;6219641;23;20478;-77
2022/01/17 06:32:51;;;;;;;24.17;8.95;;;-0.50;80.10;;;;;;6219410;23;20079;-76
2022/01/17 06:35:16;;;;;;;17.23;8.57;;;-0.50;80.40;;;;;;6218688;23;20030;-77
2022/01/17 06:37:44;;;;;;;20.42;9.27;;;-0.40;79.70;;;;;;6244516;23;20115;-78
2022/01/17 06:40:10;;;;;;;23.88;10.23;;;-0.40;79.90;;;;;;6244419;23;20047;-79
2022/01/17 06:42:36;;;;;;;19.63;9.95;;;-0.40;79.90;;;;;;6217576;23;20008;-83
2022/01/17 06:45:06;;;;;;;112.45;48.40;;;-0.40;79.70;;;;;;6218568;23;20008;-83
2022/01/17 06:47:36;;;;;;;42.03;17.92;;;-0.40;79.60;;;;;;6217703;23;20088;-79
2022/01/17 06:50:06;;;;;;;27.40;12.43;;;-0.40;79.20;;;;;;6217966;23;20158;-77
2022/01/17 06:52:32;;;;;;;25.08;11.27;;;-0.40;79.10;;;;;;6219415;23;20008;-78
2022/01/17 06:54:58;;;;;;;25.55;10.73;;;-0.40;79.00;;;;;;6220018;23;20051;-79
2022/01/17 06:57:25;;;;;;;21.73;10.77;;;-0.30;78.90;;;;;;6217905;23;20008;-77
2022/01/17 06:59:51;;;;;;;24.42;9.52;;;-0.30;79.20;;;;;;6218627;23;20049;-77
2022/01/17 07:02:17;;;;;;;22.85;10.13;;;-0.30;79.10;;;;;;6219128;23;20054;-79
2022/01/17 07:04:45;;;;;;;20.45;9.57;;;-0.30;79.10;;;;;;6220049;23;19996;-78
2022/01/17 07:07:11;;;;;;;22.25;10.23;;;-0.30;79.10;;;;;;6219052;23;20062;-78
2022/01/17 07:09:37;;;;;;;20.85;10.15;;;-0.30;79.50;;;;;;6220418;23;20008;-77
2022/01/17 07:12:06;;;;;;;20.00;10.15;;;-0.30;79.40;;;;;;6246214;23;20323;-79
2022/01/17 07:14:32;;;;;;;18.67;9.38;;;-0.20;79.10;;;;;;6217846;23;20000;-78
2022/01/17 07:16:58;;;;;;;21.42;9.57;;;-0.20;79.10;;;;;;6244000;23;20055;-80
2022/01/17 07:19:25;;;;;;;19.45;9.73;;;-0.10;78.80;;;;;;6245125;23;19996;-78
2022/01/17 07:21:51;;;;;;;17.50;9.02;;;-0.10;79.00;;;;;;6245502;23;20032;-79
2022/01/17 07:24:17;;;;;;;20.38;9.57;;;-0.10;79.00;;;;;;6219172;23;20004;-78
2022/01/17 07:26:43;;;;;;;21.58;10.52;;;-0.10;79.10;;;;;;6219191;23;20011;-77
2022/01/17 07:29:09;;;;;;;20.27;10.18;;;0.00;78.80;;;;;;6246773;23;20000;-76
2022/01/17 07:31:36;;;;;;;18.05;9.25;;;0.00;78.50;;;;;;6219748;23;20000;-76
2022/01/17 07:34:02;;;;;;;20.20;9.43;;;0.00;78.70;;;;;;6246171;23;20004;-78
2022/01/17 07:36:29;;;;;;;22.80;9.75;;;0.00;78.60;;;;;;6219989;23;20091;-76
2022/01/17 07:38:56;;;;;;;18.85;10.07;;;0.00;78.80;;;;;;6219530;23;20004;-78
2022/01/17 07:41:22;;;;;;;16.98;8.77;;;0.10;79.00;;;;;;6246926;23;20000;-78
2022/01/17 07:43:49;;;;;;;24.50;10.13;;;0.10;79.00;;;;;;6247106;23;19996;-79
2022/01/17 07:46:59;;;;;;;24.58;9.75;;;0.20;79.00;;;;;;6219602;23;20004;-77
2022/01/17 07:49:11;;;;;;;20.70;9.45;;;0.30;78.80;;;;;;6235308;23;20288;-77
2022/01/17 07:51:39;;;;;;;21.58;9.43;;;0.40;78.30;;;;;;6246484;23;19996;-78
2022/01/17 07:54:08;;;;;;;18.92;9.40;;;0.40;78.40;;;;;;6219880;23;20103;-79
2022/01/17 07:56:41;;;;;;;19.40;9.70;;;0.50;78.00;;;;;;6219555;23;20016;-76
2022/01/17 07:59:08;;;;;;;18.98;9.50;;;0.60;77.40;;;;;;6219932;23;20088;-77
2022/01/17 08:01:37;;;;;;;20.25;9.55;;;0.60;76.90;;;;;;6219157;23;20086;-78
2022/01/17 08:04:07;;;;;;;18.48;9.63;;;0.70;76.40;;;;;;6219316;23;20058;-77
2022/01/17 08:06:37;;;;;;;19.52;9.52;;;0.70;76.40;;;;;;6219581;23;20449;-79
2022/01/17 08:09:06;;;;;;;20.38;9.77;;;0.70;77.10;;;;;;6246590;23;20082;-78
2022/01/17 08:11:32;;;;;;;18.02;8.93;;;0.70;76.50;;;;;;6246327;23;20004;-77
2022/01/17 08:13:57;;;;;;;17.85;8.73;;;0.80;76.60;;;;;;6219657;23;20007;-79
2022/01/17 08:16:23;;;;;;;21.15;9.38;;;0.80;76.60;;;;;;6219339;23;20012;-78
2022/01/17 08:18:50;;;;;;;20.23;9.90;;;0.90;76.50;;;;;;6245840;23;20419;-79
2022/01/17 08:21:19;;;;;;;21.85;10.15;;;0.90;76.30;;;;;;6219677;23;20004;-77
2022/01/17 08:23:45;;;;;;;18.63;8.80;;;0.80;76.50;;;;;;6246342;23;20000;-77
2022/01/17 08:26:11;;;;;;;20.02;9.90;;;0.80;77.20;;;;;;6219594;23;20010;-77
2022/01/17 08:28:37;;;;;;;20.35;10.90;;;0.80;77.90;;;;;;6219570;23;20015;-78
2022/01/17 08:31:03;;;;;;;21.08;10.45;;;0.80;78.70;;;;;;6219449;23;20005;-77
2022/01/17 08:33:28;;;;;;;24.60;10.50;;;0.80;79.30;;;;;;6246044;23;20064;-78
2022/01/17 08:35:54;;;;;;;21.23;10.55;;;0.80;79.70;;;;;;6219538;23;20018;-77
2022/01/17 08:38:20;;;;;;;26.63;11.23;;;0.90;80.00;;;;;;6219029;23;20406;-77
2022/01/17 08:40:49;;;;;;;27.10;12.68;;;0.80;80.20;;;;;;6242166;23;20024;-79
2022/01/17 08:43:20;;;;;;;24.23;13.23;;;0.90;80.40;;;;;;6240657;23;20004;-78
2022/01/17 08:45:49;;;;;;;22.92;11.52;;;0.90;80.40;;;;;;6213569;23;20433;-78
2022/01/17 08:48:21;;;;;;;30.92;12.93;;;0.90;80.90;;;;;;6213594;23;20005;-84
2022/01/17 08:50:48;;;;;;;30.52;13.35;;;0.90;81.10;;;;;;6240635;23;19996;-85
2022/01/17 08:53:15;;;;;;;25.00;12.15;;;0.90;81.00;;;;;;6239914;23;19996;-78
2022/01/17 08:55:46;;;;;;;31.40;13.38;;;1.00;80.60;;;;;;6212523;23;20020;-78
2022/01/17 08:58:13;;;;;;;24.27;11.95;;;1.00;80.70;;;;;;6239756;23;20008;-79
2022/01/17 09:00:40;;;;;;;24.13;12.38;;;1.00;80.80;;;;;;6213406;23;20419;-78
2022/01/17 09:03:06;;;;;;;25.58;11.88;;;1.10;80.70;;;;;;6213206;23;20004;-80
2022/01/17 09:05:33;;;;;;;24.08;11.70;;;1.10;80.20;;;;;;6239478;23;20007;-79
2022/01/17 09:08:03;;;;;;;23.92;11.50;;;1.20;80.30;;;;;;6213277;23;20008;-83
2022/01/17 09:10:28;;;;;;;23.88;11.48;;;1.20;79.50;;;;;;6213263;23;20600;-79
2022/01/17 09:12:55;;;;;;;22.50;10.75;;;1.30;79.00;;;;;;6212458;23;20019;-80
2022/01/17 09:15:20;;;;;;;23.55;10.88;;;1.30;78.70;;;;;;6241181;23;20027;-85
2022/01/17 09:17:49;;;;;;;20.08;10.18;;;1.30;78.90;;;;;;6240175;23;20534;-78
2022/01/17 09:20:21;;;;;;;20.63;9.95;;;1.40;78.60;;;;;;6212859;23;20418;-80
2022/01/17 09:22:46;;;;;;;19.30;10.40;;;1.50;78.60;;;;;;6215096;23;20083;-79
2022/01/17 09:25:12;;;;;;;21.17;10.80;;;1.50;78.70;;;;;;6216070;23;20027;-82
2022/01/17 09:27:42;;;;;;;23.35;11.90;;;1.70;78.10;;;;;;6214457;23;21362;-79
2022/01/17 09:30:11;;;;;;;19.55;10.95;;;1.70;78.30;;;;;;6214785;23;20011;-80
2022/01/17 09:32:37;;;;;;;22.67;10.20;;;1.90;77.70;;;;;;6242245;23;20011;-86
2022/01/17 09:35:19;;;;;;;19.30;9.95;;;2.00;77.00;;;;;;6243133;23;20086;-79
2022/01/17 09:37:45;;;;;;;20.60;10.50;;;2.00;76.70;;;;;;6214730;23;20074;-81
2022/01/17 09:40:11;;;;;;;22.67;11.30;;;2.10;76.40;;;;;;6242507;23;20028;-80
2022/01/17 09:42:38;;;;;;;21.27;10.73;;;2.10;75.80;;;;;;6241642;23;20000;-79
2022/01/17 09:45:10;;;;;;;21.05;11.35;;;2.10;76.00;;;;;;6216088;23;20300;-84
2022/01/17 09:47:37;;;;;;;20.60;10.52;;;2.10;75.90;;;;;;6214933;23;20036;-80
2022/01/17 09:50:09;;;;;;;22.23;10.68;;;2.00;76.20;;;;;;6241075;23;20036;-78
2022/01/17 09:52:49;;;;;;;23.23;10.95;;;2.10;75.80;;;;;;6214397;23;20004;-78
2022/01/17 09:55:22;;;;;;;20.33;9.95;;;2.10;76.40;;;;;;6214151;23;20016;-79
2022/01/17 09:58:21;;;;;;;21.58;11.02;;;2.10;76.20;;;;;;6214224;23;20015;-81
2022/01/17 10:00:47;;;;;;;19.80;10.25;;;2.10;76.40;;;;;;6213672;23;20073;-85
2022/01/17 10:03:18;;;;;;;22.05;10.65;;;2.10;76.70;;;;;;6241395;23;20029;-77
2022/01/17 10:05:47;;;;;;;;;;;2.20;76.70;;;;;;6214796;23;20012;-80
2022/01/17 10:08:16;;;;;;;17.95;8.88;;;2.20;76.40;;;;;;6213574;23;19950;-78
2022/01/17 10:10:51;;;;;;;18.02;9.90;;;2.20;76.60;;;;;;6214406;23;20004;-82
2022/01/17 10:13:34;;;;;;;23.23;10.70;;;2.30;76.70;;;;;;6215144;23;20007;-84
2022/01/17 10:16:41;;;;;;;23.65;9.70;;;2.30;76.70;;;;;;6213798;23;20008;-83
2022/01/17 10:19:07;;;;;;;18.73;10.13;;;2.40;76.70;;;;;;6221272;23;20384;-81
2022/01/17 10:21:46;;;;;;;22.50;10.80;;;2.40;76.80;;;;;;6242747;23;19996;-80
2022/01/17 10:24:53;;;;;;;20.27;10.52;;;2.50;76.50;;;;;;6242847;23;20093;-81
2022/01/17 10:30:32;;;;;;;17.23;9.95;;;2.60;76.50;;;;;;6240470;23;20007;-78
2022/01/17 10:39:06;;;;;;;19.33;9.85;;;2.70;76.30;;;;;;6236960;23;20011;-79
2022/01/17 10:41:38;;;;;;;22.08;10.93;;;2.70;76.40;;;;;;6214363;23;20318;-85
2022/01/17 10:44:07;;;;;;;21.00;10.40;;;2.70;76.70;;;;;;6242171;23;20080;-81
2022/01/17 10:46:34;;;;;;;21.30;10.48;;;2.80;76.60;;;;;;6215773;23;20009;-79
2022/01/17 10:49:03;;;;;;;21.25;10.10;;;2.80;76.50;;;;;;6242866;23;20035;-79
2022/01/17 10:51:37;;;;;;;20.88;10.30;;;2.70;76.70;;;;;;6223849;23;20044;-84
2022/01/17 10:54:21;;;;;;;24.00;11.00;;;2.80;76.90;;;;;;6220207;23;20035;-86
2022/01/17 10:56:54;;;;;;;21.85;11.27;;;2.70;77.00;;;;;;6218246;23;20024;-79
2022/01/17 10:59:27;;;;;;;22.45;10.82;;;2.70;77.40;;;;;;6214466;23;20011;-85
2022/01/17 11:01:54;;;;;;;20.02;10.63;;;2.70;77.20;;;;;;6214206;23;20008;-83
2022/01/17 11:04:36;;;;;;;22.08;10.73;;;2.70;77.50;;;;;;6214373;23;20091;-80
2022/01/17 11:07:07;;;;;;;22.50;11.38;;;2.60;77.70;;;;;;6215052;23;19997;-80
2022/01/17 11:09:46;;;;;;;25.23;11.65;;;2.60;77.60;;;;;;6214287;23;20314;-79
2022/01/17 11:12:14;;;;;;;24.30;12.13;;;2.60;77.70;;;;;;6214318;23;20000;-82
2022/01/17 11:14:41;;;;;;;24.95;12.32;;;2.60;78.00;;;;;;6239826;23;20319;-79
2022/01/17 11:17:33;;;;;;;24.67;12.27;;;2.60;78.20;;;;;;6212233;23;20016;-81
2022/01/17 11:20:08;;;;;;;24.90;10.80;;;2.50;78.60;;;;;;6213712;23;20008;-78
2022/01/17 11:22:43;;;;;;;19.48;10.30;;;2.50;79.00;;;;;;6214968;23;20011;-89
2022/01/17 11:25:16;;;;;;;19.02;9.98;;;2.50;79.50;;;;;;6213540;23;20004;-79
2022/01/17 11:27:42;;;;;;;17.85;9.80;;;2.50;79.80;;;;;;6240856;23;19996;-80
2022/01/17 11:30:09;;;;;;;19.85;10.43;;;2.50;80.20;;;;;;6214203;23;20104;-82
2022/01/17 11:32:36;;;;;;;19.50;9.90;;;2.40;80.60;;;;;;6216222;23;20083;-82
2022/01/17 11:35:05;;;;;;;21.17;10.80;;;2.40;80.80;;;;;;6212916;23;20015;-80
2022/01/17 11:37:39;;;;;;;21.85;10.10;;;2.50;81.20;;;;;;6213062;23;20043;-82
2022/01/17 11:40:07;;;;;;;22.73;10.90;;;2.50;81.40;;;;;;6239319;23;19999;-84
2022/01/17 11:42:43;;;;;;;18.95;9.77;;;2.50;81.40;;;;;;6214556;23;20438;-81
2022/01/17 11:45:23;;;;;;;19.92;9.98;;;2.50;81.40;;;;;;6214808;23;20011;-81
2022/01/17 11:48:01;;;;;;;19.23;10.43;;;2.50;82.10;;;;;;6214381;23;20393;-85
2022/01/17 11:50:27;;;;;;;18.02;9.32;;;2.50;81.90;;;;;;6214508;23;20012;-82
2022/01/17 11:52:53;;;;;;;18.50;10.02;;;2.60;81.90;;;;;;6239541;23;20613;-80
2022/01/17 11:55:38;;;;;;;20.00;9.98;;;2.60;82.00;;;;;;6240216;23;20067;-79
2022/01/17 11:58:30;;;;;;;18.52;9.23;;;2.60;82.20;;;;;;6213419;23;20525;-79
2022/01/17 12:00:59;;;;;;;16.90;9.55;;;2.60;82.30;;;;;;6213729;23;20004;-81
2022/01/17 12:03:31;;;;;;;20.15;10.75;;;2.60;82.30;;;;;;6214193;23;20054;-80
2022/01/17 12:06:05;;;;;;;21.05;11.43;;;2.60;83.30;;;;;;6213630;23;20584;-78
2022/01/17 12:08:31;;;;;;;21.55;10.75;;;2.60;83.00;;;;;;6213144;23;19998;-78
2022/01/17 12:11:00;;;;;;;25.58;11.93;;;2.60;83.40;;;;;;6212980;23;20004;-77
2022/01/17 12:13:45;;;;;;;20.85;11.23;;;2.60;83.50;;;;;;6213826;23;20000;-86
2022/01/17 12:16:19;;;;;;;20.85;11.45;;;2.60;83.90;;;;;;6212660;23;20012;-79
2022/01/17 12:18:51;;;;;;;21.42;11.00;;;2.60;84.00;;;;;;6212906;23;20000;-81
2022/01/17 12:21:24;;;;;;;23.65;11.60;;;2.60;84.10;;;;;;6214105;23;20008;-86
2022/01/17 12:24:11;;;;;;;21.63;11.88;;;2.60;84.60;;;;;;6214596;23;20107;-78
2022/01/17 12:26:37;;;;;;;17.48;10.15;;;2.60;85.10;;;;;;6239984;23;20432;-79
2022/01/17 12:29:02;;;;;;;19.10;10.50;;;2.60;85.50;;;;;;6214846;23;20087;-78
2022/01/17 12:31:37;;;;;;;20.33;10.68;;;2.60;85.70;;;;;;6213163;23;20014;-80
2022/01/17 12:34:26;;;;;;;21.58;9.95;;;2.60;86.30;;;;;;6239811;23;19996;-78
2022/01/17 12:36:54;;;;;;;19.08;10.13;;;2.60;86.50;;;;;;6214000;23;20063;-81
2022/01/17 12:39:23;;;;;;;22.00;12.00;;;2.60;86.40;;;;;;6212715;23;20055;-81
2022/01/17 12:41:52;;;;;;;22.45;11.20;;;2.60;86.40;;;;;;6212750;23;20008;-78
2022/01/17 12:44:24;;;;;;;22.40;10.85;;;2.60;86.70;;;;;;6213653;23;20000;-93
2022/01/17 12:46:55;;;;;;;20.20;10.48;;;2.60;86.90;;;;;;6213558;23;20007;-79
2022/01/17 12:49:21;;;;;;;;;;;2.60;87.30;;;;;;6240616;23;20027;-78
2022/01/17 12:51:50;;;;;;;21.33;10.65;;;2.60;87.60;;;;;;6239377;23;20335;-79
2022/01/17 12:54:29;;;;;;;23.70;12.48;;;2.60;87.60;;;;;;6213081;23;19996;-90
2022/01/17 12:57:01;;;;;;;26.67;12.07;;;2.60;87.90;;;;;;6187822;23;20382;-82
2022/01/17 12:59:27;;;;;;;20.40;10.65;;;2.60;88.70;;;;;;6213378;23;20006;-89
2022/01/17 13:01:58;;;;;;;25.05;13.00;;;2.50;88.40;;;;;;6213348;23;20091;-78
2022/01/17 13:04:29;;;;;;;23.63;12.27;;;2.50;89.40;;;;;;6239811;23;20008;-78
2022/01/17 13:06:58;;;;;;;23.38;11.40;;;2.50;89.20;;;;;;6188918;23;20039;-80
2022/01/17 13:09:25;;;;;;;24.33;11.90;;;2.60;89.60;;;;;;6213107;23;20331;-84
2022/01/17 13:11:57;;;;;;;25.20;12.82;;;2.50;89.80;;;;;;6214194;23;20082;-83